Time;durP1;ratioP1;P1;durP2;ratioP2;P2;SDS_P1;SDS_P2;PMS_P1;PMS_P2;Temp;Humidity;BMP_temperature;BMP_pressure;BME280_temperature;BME280_humidity;BME280_pressure;Samples;Min_cycle;Max_cycle;Signal;HPM_P1;HPM_P2
2023/11/30 00:00:16;;;;;;;8.15;6.22;;;;;5.20;97155.00;;;;4902421;29;20136;-64
2023/11/30 00:02:42;;;;;;;9.70;6.95;;;;;5.10;97153.00;;;;4902520;29;20051;-64
2023/11/30 00:05:09;;;;;;;12.55;7.60;;;;;5.10;97148.00;;;;4903914;29;20072;-64
2023/11/30 00:07:36;;;;;;;9.95;6.50;;;;;5.20;97146.00;;;;4902677;29;20049;-64
2023/11/30 00:10:03;;;;;;;8.68;6.68;;;;;5.00;97131.00;;;;4901783;29;20112;-64
2023/11/30 00:12:30;;;;;;;9.13;6.82;;;;;5.00;97132.00;;;;4903309;29;20056;-64
2023/11/30 00:14:56;;;;;;;11.25;7.43;;;;;5.00;97129.00;;;;4899878;29;20087;-64
2023/11/30 00:17:23;;;;;;;9.45;6.80;;;;;4.90;97124.00;;;;4903051;29;20048;-64
2023/11/30 00:19:50;;;;;;;7.18;6.22;;;;;4.70;97116.00;;;;4903128;29;20059;-63
2023/11/30 00:22:16;;;;;;;11.85;6.40;;;;;4.70;97108.00;;;;4898588;29;20414;-62
2023/11/30 00:24:43;;;;;;;8.77;5.63;;;;;4.70;97110.00;;;;4898738;29;20486;-62
2023/11/30 00:27:09;;;;;;;10.70;5.75;;;;;4.70;97109.00;;;;4898357;29;20089;-61
2023/11/30 00:29:36;;;;;;;8.30;5.57;;;;;4.70;97114.00;;;;4898448;29;20084;-63
2023/11/30 00:32:02;;;;;;;9.60;5.90;;;;;4.70;97116.00;;;;4897880;29;20043;-64
2023/11/30 00:34:29;;;;;;;7.18;5.40;;;;;4.80;97125.00;;;;4898567;29;20041;-64
2023/11/30 00:36:56;;;;;;;8.77;6.28;;;;;4.80;97115.00;;;;4898740;29;20058;-64
2023/11/30 00:39:22;;;;;;;10.77;7.50;;;;;4.80;97122.00;;;;4897568;29;20155;-63
2023/11/30 00:41:49;;;;;;;7.70;5.80;;;;;4.80;97112.00;;;;4913705;29;20049;-64
2023/11/30 00:44:18;;;;;;;9.35;5.88;;;;;4.80;97109.00;;;;4899081;29;20048;-64
2023/11/30 00:46:44;;;;;;;10.57;6.25;;;;;4.90;97106.00;;;;4913967;29;20075;-62
2023/11/30 00:49:11;;;;;;;8.20;5.70;;;;;4.90;97115.00;;;;4898484;29;20514;-63
2023/11/30 00:51:37;;;;;;;6.80;5.60;;;;;4.90;97118.00;;;;4899959;29;20045;-64
2023/11/30 00:54:04;;;;;;;8.15;5.68;;;;;4.80;97118.00;;;;4898108;29;20057;-64
2023/11/30 00:56:30;;;;;;;10.15;6.93;;;;;4.80;97109.00;;;;4900763;29;20060;-63
2023/11/30 00:58:57;;;;;;;7.38;6.00;;;;;4.90;97106.00;;;;4901702;29;20053;-61
2023/11/30 01:01:24;;;;;;;6.78;6.00;;;;;4.90;97103.00;;;;4899872;29;20043;-64
2023/11/30 01:03:50;;;;;;;7.07;5.60;;;;;4.90;97096.00;;;;4912875;29;20060;-64
2023/11/30 01:06:17;;;;;;;8.40;6.20;;;;;4.90;97101.00;;;;4898467;29;20044;-63
2023/11/30 01:08:43;;;;;;;8.45;6.07;;;;;5.00;97099.00;;;;4897168;29;20044;-61
2023/11/30 01:11:10;;;;;;;8.57;6.03;;;;;5.00;97100.00;;;;4898450;29;20044;-61
2023/11/30 01:13:37;;;;;;;7.85;6.25;;;;;5.00;97103.00;;;;4912088;29;20085;-61
2023/11/30 01:16:04;;;;;;;8.55;6.00;;;;;5.00;97096.00;;;;4896766;29;20116;-62
2023/11/30 01:18:30;;;;;;;9.18;6.38;;;;;5.00;97104.00;;;;4896946;29;20052;-61
2023/11/30 01:20:57;;;;;;;9.32;6.18;;;;;5.00;97090.00;;;;4896895;29;20055;-63
2023/11/30 01:23:24;;;;;;;8.45;5.95;;;;;5.00;97090.00;;;;4897375;29;20045;-66
2023/11/30 01:25:50;;;;;;;6.65;5.65;;;;;5.00;97090.00;;;;4898118;29;20487;-61
2023/11/30 01:28:17;;;;;;;7.53;5.43;;;;;5.00;97081.00;;;;4912586;29;20055;-61
2023/11/30 01:30:45;;;;;;;7.25;5.32;;;;;5.00;97083.00;;;;4896877;29;20040;-61
2023/11/30 01:33:11;;;;;;;9.85;5.90;;;;;5.00;97076.00;;;;4912512;29;20049;-61
2023/11/30 01:35:38;;;;;;;9.32;5.95;;;;;5.00;97079.00;;;;4897339;29;20156;-61
2023/11/30 01:38:04;;;;;;;10.10;6.47;;;;;5.00;97076.00;;;;4896700;29;20140;-61
2023/11/30 01:40:31;;;;;;;9.38;6.40;;;;;5.10;97068.00;;;;4897861;29;20087;-61
2023/11/30 01:42:58;;;;;;;6.78;5.75;;;;;5.10;97066.00;;;;4897896;29;20064;-64
2023/11/30 01:45:24;;;;;;;8.32;5.50;;;;;5.10;97069.00;;;;4880416;29;20494;-63
2023/11/30 01:47:52;;;;;;;7.80;6.05;;;;;5.10;97079.00;;;;4912076;29;20056;-64
2023/11/30 01:50:20;;;;;;;10.55;5.90;;;;;5.20;97086.00;;;;4897659;29;20494;-64
2023/11/30 01:52:47;;;;;;;7.97;5.68;;;;;5.20;97075.00;;;;4897909;29;20127;-63
2023/11/30 01:55:13;;;;;;;9.05;6.07;;;;;5.20;97077.00;;;;4880298;29;20059;-63
2023/11/30 01:57:41;;;;;;;9.13;5.65;;;;;5.20;97073.00;;;;4912182;29;20044;-64
2023/11/30 02:00:09;;;;;;;6.85;5.55;;;;;5.20;97069.00;;;;4896308;29;20056;-64
2023/11/30 02:02:39;;;;;;;9.30;6.25;;;;;5.20;97060.00;;;;4896283;29;20052;-63
2023/11/30 02:05:06;;;;;;;7.72;5.72;;;;;5.20;97055.00;;;;4895391;29;20156;-64
2023/11/30 02:07:33;;;;;;;7.35;5.45;;;;;5.30;97060.00;;;;4895865;29;20095;-64
2023/11/30 02:09:59;;;;;;;7.00;5.03;;;;;5.30;97046.00;;;;4897270;29;20049;-64
2023/11/30 02:12:26;;;;;;;8.85;4.90;;;;;5.20;97042.00;;;;4895923;29;20048;-64
2023/11/30 02:14:53;;;;;;;7.82;5.28;;;;;5.10;97041.00;;;;4910485;29;20093;-64
2023/11/30 02:17:19;;;;;;;9.15;5.90;;;;;5.00;97040.00;;;;4895914;29;20049;-64
2023/11/30 02:19:46;;;;;;;7.60;5.75;;;;;5.00;97037.00;;;;4880485;29;20490;-64
2023/11/30 02:22:14;;;;;;;9.70;5.85;;;;;5.00;97044.00;;;;4897245;29;20119;-64
2023/11/30 02:24:41;;;;;;;9.85;6.07;;;;;5.10;97042.00;;;;4895155;29;20577;-64
2023/11/30 02:27:07;;;;;;;8.18;6.03;;;;;5.20;97052.00;;;;4895569;29;20052;-62
2023/11/30 02:29:34;;;;;;;8.85;6.03;;;;;5.20;97049.00;;;;4897076;29;20044;-64
2023/11/30 02:32:01;;;;;;;7.80;6.18;;;;;5.20;97048.00;;;;4895783;29;20049;-64
2023/11/30 02:34:28;;;;;;;7.18;5.93;;;;;5.30;97038.00;;;;4896400;29;20045;-64
2023/11/30 02:36:54;;;;;;;11.00;6.35;;;;;5.30;97042.00;;;;4896797;29;20044;-64
2023/11/30 02:39:21;;;;;;;6.65;5.47;;;;;5.10;97029.00;;;;4897352;29;20053;-64
2023/11/30 02:41:48;;;;;;;8.02;5.97;;;;;5.00;97032.00;;;;4896773;29;20498;-62
2023/11/30 02:44:14;;;;;;;6.88;5.45;;;;;4.80;97035.00;;;;4911070;29;20388;-64
2023/11/30 02:46:41;;;;;;;9.40;6.50;;;;;4.70;97027.00;;;;4880257;29;20099;-64
2023/11/30 02:49:08;;;;;;;7.53;5.72;;;;;4.70;97030.00;;;;4895732;29;20052;-64
2023/11/30 02:51:35;;;;;;;6.43;5.25;;;;;4.70;97038.00;;;;4895542;29;20414;-64
2023/11/30 02:54:02;;;;;;;5.93;4.38;;;;;4.70;97033.00;;;;4910674;29;20067;-63
2023/11/30 02:56:28;;;;;;;7.25;4.95;;;;;4.60;97017.00;;;;4911321;29;20049;-64
2023/11/30 02:58:55;;;;;;;6.85;4.75;;;;;4.60;97017.00;;;;4911582;29;20084;-64
2023/11/30 03:01:23;;;;;;;8.35;5.30;;;;;4.60;97007.00;;;;4895505;29;20066;-64
2023/11/30 03:03:49;;;;;;;5.75;4.68;;;;;4.50;97006.00;;;;4895237;29;20115;-64
2023/11/30 03:06:16;;;;;;;9.13;5.75;;;;;4.40;97000.00;;;;4896731;29;20041;-64
2023/11/30 03:08:45;;;;;;;6.82;5.10;;;;;4.30;97003.00;;;;4895430;29;20569;-63
2023/11/30 03:11:12;;;;;;;7.63;5.40;;;;;4.30;97003.00;;;;4895613;29;20056;-64
2023/11/30 03:13:40;;;;;;;5.90;5.13;;;;;4.20;96997.00;;;;4895048;29;20517;-63
2023/11/30 03:16:06;;;;;;;7.03;5.63;;;;;4.20;96993.00;;;;4911249;29;20091;-64
2023/11/30 03:18:33;;;;;;;7.97;5.80;;;;;4.20;96997.00;;;;4896346;29;20478;-64
2023/11/30 03:21:00;;;;;;;6.82;4.93;;;;;4.10;96982.00;;;;4895828;29;20122;-63
2023/11/30 03:23:26;;;;;;;6.32;5.28;;;;;4.00;96980.00;;;;4894688;29;20478;-64
2023/11/30 03:25:53;;;;;;;8.27;5.75;;;;;4.00;96975.00;;;;4898857;29;20088;-63
2023/11/30 03:28:19;;;;;;;8.55;5.57;;;;;3.90;96980.00;;;;4884431;29;20059;-64
2023/11/30 03:30:46;;;;;;;7.85;5.82;;;;;3.90;96976.00;;;;4900811;29;20483;-64
2023/11/30 03:33:12;;;;;;;8.55;5.70;;;;;4.00;96972.00;;;;4899396;29;20081;-65
2023/11/30 03:35:41;;;;;;;6.63;5.47;;;;;4.00;96969.00;;;;4898356;29;20056;-65
2023/11/30 03:38:08;;;;;;;7.43;5.70;;;;;4.00;96963.00;;;;4899209;29;20562;-65
2023/11/30 03:40:34;;;;;;;8.90;5.60;;;;;3.90;96964.00;;;;4899009;29;20421;-65
2023/11/30 03:43:01;;;;;;;7.22;5.10;;;;;3.80;96964.00;;;;4898692;29;20053;-65
2023/11/30 03:45:31;;;;;;;8.77;5.50;;;;;3.70;96971.00;;;;4899097;29;20044;-65
2023/11/30 03:48:01;;;;;;;8.80;5.25;;;;;3.70;96971.00;;;;4898880;29;20055;-65
2023/11/30 03:50:28;;;;;;;7.00;5.40;;;;;3.70;96977.00;;;;4898486;29;20048;-64
2023/11/30 03:52:54;;;;;;;7.07;5.10;;;;;3.70;96975.00;;;;4899862;29;20049;-64
2023/11/30 03:55:22;;;;;;;7.00;5.10;;;;;3.80;96969.00;;;;4915090;29;20466;-63
2023/11/30 03:57:49;;;;;;;7.88;5.28;;;;;3.80;96973.00;;;;4900562;29;20052;-63
2023/11/30 04:00:16;;;;;;;8.50;5.75;;;;;3.80;96976.00;;;;4883187;29;20597;-64
2023/11/30 04:02:44;;;;;;;7.20;4.95;;;;;3.80;96970.00;;;;4913996;29;20044;-63
2023/11/30 04:05:11;;;;;;;6.78;5.00;;;;;3.80;96961.00;;;;4913209;29;20048;-64
2023/11/30 04:07:38;;;;;;;5.25;4.43;;;;;3.80;96957.00;;;;4898147;29;20044;-64
2023/11/30 04:10:07;;;;;;;6.38;5.13;;;;;3.70;96960.00;;;;4898617;29;20457;-64
2023/11/30 04:12:34;;;;;;;7.35;5.05;;;;;3.70;96947.00;;;;4898637;29;20053;-64
2023/11/30 04:15:02;;;;;;;7.72;4.78;;;;;3.80;96947.00;;;;4898229;29;20123;-64
2023/11/30 04:17:30;;;;;;;8.10;5.45;;;;;3.70;96944.00;;;;4898341;29;20045;-64
2023/11/30 04:19:57;;;;;;;12.32;8.65;;;;;3.70;96943.00;;;;4899370;29;20067;-64
2023/11/30 04:22:24;;;;;;;8.73;6.53;;;;;3.70;96945.00;;;;4899210;29;20056;-64
2023/11/30 04:24:50;;;;;;;13.35;6.30;;;;;3.70;96936.00;;;;4898514;29;20048;-64
2023/11/30 04:27:17;;;;;;;9.43;6.72;;;;;3.60;96932.00;;;;4899117;29;20072;-64
2023/11/30 04:29:44;;;;;;;10.90;7.28;;;;;3.50;96925.00;;;;4898947;29;20056;-64
2023/11/30 04:32:10;;;;;;;9.82;6.55;;;;;3.60;96928.00;;;;4913562;29;20055;-62
2023/11/30 04:34:37;;;;;;;10.20;6.30;;;;;3.50;96927.00;;;;4897192;29;20479;-64
2023/11/30 04:37:04;;;;;;;6.88;5.63;;;;;3.40;96925.00;;;;4897209;29;20510;-64
2023/11/30 04:39:30;;;;;;;7.43;6.03;;;;;3.40;96920.00;;;;4897882;29;20056;-64
2023/11/30 04:41:57;;;;;;;8.75;6.22;;;;;3.40;96932.00;;;;4913294;29;20056;-63
2023/11/30 04:44:28;;;;;;;9.30;6.38;;;;;3.50;96935.00;;;;4897322;29;20513;-64
2023/11/30 04:46:54;;;;;;;7.15;5.50;;;;;3.50;96939.00;;;;4897520;29;20048;-64
2023/11/30 04:49:21;;;;;;;10.20;6.90;;;;;3.60;96946.00;;;;4897635;29;20053;-63
2023/11/30 04:51:48;;;;;;;8.48;5.80;;;;;3.60;96954.00;;;;4913404;29;20045;-66
2023/11/30 04:54:15;;;;;;;11.82;6.80;;;;;3.60;96953.00;;;;4896865;29;20134;-64
2023/11/30 04:56:41;;;;;;;6.68;5.32;;;;;3.60;96949.00;;;;4913073;29;20131;-63
2023/11/30 04:59:08;;;;;;;5.53;4.60;;;;;3.60;96947.00;;;;4897319;29;20096;-63
2023/11/30 05:01:34;;;;;;;11.40;5.55;;;;;3.60;96944.00;;;;4912856;29;20052;-64
2023/11/30 05:04:02;;;;;;;6.43;4.57;;;;;3.50;96944.00;;;;4897849;29;20052;-64
2023/11/30 05:06:30;;;;;;;7.05;5.18;;;;;3.60;96954.00;;;;4898254;29;20101;-62
2023/11/30 05:08:57;;;;;;;7.55;4.95;;;;;3.60;96962.00;;;;4898328;29;20600;-64
2023/11/30 05:11:24;;;;;;;6.78;5.55;;;;;3.60;96956.00;;;;4898304;29;20044;-64
2023/11/30 05:13:50;;;;;;;7.50;5.60;;;;;3.60;96958.00;;;;4897562;29;20063;-64
2023/11/30 05:16:17;;;;;;;8.75;6.18;;;;;3.40;96962.00;;;;4896993;29;20048;-64
2023/11/30 05:18:44;;;;;;;13.48;6.38;;;;;3.20;96950.00;;;;4897146;29;20135;-64
2023/11/30 05:21:10;;;;;;;8.18;6.38;;;;;3.10;96939.00;;;;4896991;29;20051;-64
2023/11/30 05:23:37;;;;;;;8.55;6.72;;;;;3.10;96944.00;;;;4896158;29;20517;-64
2023/11/30 05:26:04;;;;;;;9.23;5.78;;;;;3.10;96933.00;;;;4897989;29;20048;-63
2023/11/30 05:28:32;;;;;;;9.57;6.75;;;;;3.00;96934.00;;;;4897933;29;20131;-63
2023/11/30 05:30:59;;;;;;;9.75;6.40;;;;;3.00;96920.00;;;;4896676;29;20103;-64
2023/11/30 05:33:27;;;;;;;8.38;5.75;;;;;2.90;96924.00;;;;4896100;29;20079;-63
2023/11/30 05:35:54;;;;;;;7.82;5.22;;;;;2.80;96923.00;;;;4896625;29;20070;-64
2023/11/30 05:38:21;;;;;;;8.75;5.40;;;;;2.60;96923.00;;;;4897705;29;20541;-63
2023/11/30 05:40:47;;;;;;;6.10;4.90;;;;;2.50;96910.00;;;;4898432;29;20083;-64
2023/11/30 05:43:14;;;;;;;7.28;5.15;;;;;2.40;96905.00;;;;4898772;29;20104;-64
2023/11/30 05:45:41;;;;;;;7.10;5.13;;;;;2.50;96905.00;;;;4898579;29;20087;-62
2023/11/30 05:48:07;;;;;;;7.40;4.60;;;;;2.50;96887.00;;;;4898568;29;20044;-64
2023/11/30 05:50:35;;;;;;;9.73;5.70;;;;;2.50;96890.00;;;;4898696;29;20048;-64
2023/11/30 05:53:01;;;;;;;9.00;5.90;;;;;2.40;96886.00;;;;4899046;29;20406;-64
2023/11/30 05:55:28;;;;;;;6.95;5.13;;;;;2.40;96888.00;;;;4898398;29;20525;-63
2023/11/30 05:57:54;;;;;;;9.45;5.93;;;;;2.40;96884.00;;;;4882197;29;20486;-64
2023/11/30 06:00:21;;;;;;;7.97;5.60;;;;;2.50;96886.00;;;;4898612;29;20045;-62
2023/11/30 06:02:48;;;;;;;6.30;4.65;;;;;2.50;96876.00;;;;4912343;29;20579;-63
2023/11/30 06:05:16;;;;;;;7.72;4.65;;;;;2.50;96868.00;;;;4896788;29;20055;-64
2023/11/30 06:07:44;;;;;;;6.93;4.93;;;;;2.50;96874.00;;;;4896046;29;20049;-64
2023/11/30 06:10:11;;;;;;;8.32;5.15;;;;;2.60;96858.00;;;;4897274;29;20044;-64
2023/11/30 06:12:39;;;;;;;7.80;4.93;;;;;2.50;96869.00;;;;4897195;29;20079;-63
2023/11/30 06:15:06;;;;;;;6.97;4.78;;;;;2.50;96871.00;;;;4879836;29;20076;-63
2023/11/30 06:17:32;;;;;;;7.68;5.45;;;;;2.40;96871.00;;;;4896031;29;20502;-64
2023/11/30 06:19:59;;;;;;;8.13;5.57;;;;;2.50;96872.00;;;;4896121;29;20052;-63
2023/11/30 06:22:29;;;;;;;8.05;6.13;;;;;2.50;96867.00;;;;4895755;29;20135;-65
2023/11/30 06:24:55;;;;;;;9.57;5.93;;;;;2.50;96861.00;;;;4895337;29;20045;-65
2023/11/30 06:27:22;;;;;;;7.55;5.20;;;;;2.40;96858.00;;;;4895814;29;20049;-64
2023/11/30 06:29:49;;;;;;;8.63;5.72;;;;;2.40;96866.00;;;;4911619;29;20081;-64
2023/11/30 06:32:16;;;;;;;9.90;5.93;;;;;2.50;96856.00;;;;4896910;29;20048;-65
2023/11/30 06:34:42;;;;;;;12.68;6.35;;;;;2.40;96868.00;;;;4896281;29;20048;-64
2023/11/30 06:37:09;;;;;;;7.00;5.93;;;;;2.30;96865.00;;;;4896883;29;20093;-65
2023/11/30 06:39:35;;;;;;;8.95;5.45;;;;;2.40;96871.00;;;;4896931;29;20494;-65
2023/11/30 06:42:02;;;;;;;8.05;5.57;;;;;2.40;96864.00;;;;4897058;29;20107;-65
2023/11/30 06:44:29;;;;;;;8.68;5.85;;;;;2.30;96850.00;;;;4896378;29;20124;-64
2023/11/30 06:46:55;;;;;;;8.73;6.07;;;;;2.30;96854.00;;;;4911218;29;20059;-65
2023/11/30 06:49:22;;;;;;;11.77;6.55;;;;;2.20;96864.00;;;;4896734;29;20422;-64
2023/11/30 06:51:48;;;;;;;8.90;5.85;;;;;2.20;96860.00;;;;4896770;29;20048;-64
2023/11/30 06:54:15;;;;;;;9.32;5.93;;;;;2.30;96863.00;;;;4896163;29;20044;-65
2023/11/30 06:56:42;;;;;;;6.95;4.85;;;;;2.20;96863.00;;;;4896936;29;20049;-64
2023/11/30 06:59:09;;;;;;;4.95;3.92;;;;;2.20;96864.00;;;;4896816;29;20477;-64
2023/11/30 07:01:36;;;;;;;10.90;4.50;;;;;2.20;96859.00;;;;4898918;29;20127;-65
2023/11/30 07:04:03;;;;;;;7.07;4.15;;;;;2.30;96852.00;;;;4914463;29;20072;-65
2023/11/30 07:06:30;;;;;;;8.55;4.30;;;;;2.40;96851.00;;;;4900356;29;20095;-65
2023/11/30 07:08:57;;;;;;;5.90;3.95;;;;;2.40;96849.00;;;;4914798;29;20059;-65
2023/11/30 07:11:23;;;;;;;5.18;3.65;;;;;2.50;96853.00;;;;4899293;29;20040;-65
2023/11/30 07:13:50;;;;;;;4.78;3.83;;;;;2.60;96860.00;;;;4898467;29;20068;-65
2023/11/30 07:16:17;;;;;;;5.05;3.55;;;;;2.80;96871.00;;;;4900205;29;20128;-65
2023/11/30 07:18:43;;;;;;;3.53;2.85;;;;;2.90;96871.00;;;;4899075;29;20049;-64
2023/11/30 07:21:14;;;;;;;6.00;3.20;;;;;2.70;96870.00;;;;4914819;29;20059;-65
2023/11/30 07:23:42;;;;;;;10.75;4.70;;;;;2.50;96863.00;;;;4898317;29;20096;-65
2023/11/30 07:26:10;;;;;;;13.80;5.97;;;;;2.30;96873.00;;;;4900066;29;20075;-65
2023/11/30 07:28:37;;;;;;;8.35;5.43;;;;;2.20;96857.00;;;;4900063;29;20472;-64
2023/11/30 07:31:03;;;;;;;13.98;6.35;;;;;2.30;96861.00;;;;4900096;29;20052;-64
2023/11/30 07:33:30;;;;;;;8.55;5.15;;;;;2.30;96859.00;;;;4899419;29;20050;-64
2023/11/30 07:35:57;;;;;;;13.20;8.73;;;;;2.40;96872.00;;;;4899379;29;20052;-64
2023/11/30 07:38:23;;;;;;;9.32;6.18;;;;;2.60;96870.00;;;;4899936;29;20076;-64
2023/11/30 07:40:50;;;;;;;9.88;6.20;;;;;2.70;96864.00;;;;4900067;29;20076;-64
2023/11/30 07:43:16;;;;;;;10.10;8.00;;;;;2.70;96864.00;;;;4899775;29;20068;-64
2023/11/30 07:45:43;;;;;;;28.83;21.27;;;;;2.50;96841.00;;;;4897828;29;20055;-65
2023/11/30 07:48:10;;;;;;;16.20;10.98;;;;;2.50;96850.00;;;;4899849;29;20124;-65
2023/11/30 07:50:36;;;;;;;13.68;9.57;;;;;2.70;96848.00;;;;4899688;29;20044;-64
2023/11/30 07:53:08;;;;;;;13.32;8.75;;;;;2.80;96864.00;;;;4898296;29;20115;-67
2023/11/30 07:55:36;;;;;;;9.88;6.82;;;;;3.00;96865.00;;;;4899041;29;20229;-64
2023/11/30 07:58:02;;;;;;;10.27;6.93;;;;;3.00;96868.00;;;;4899530;29;20055;-63
2023/11/30 08:00:29;;;;;;;11.38;6.82;;;;;3.10;96871.00;;;;4899518;29;20470;-64
2023/11/30 08:02:55;;;;;;;8.30;6.25;;;;;3.00;96861.00;;;;4899323;29;20100;-63
2023/11/30 08:05:23;;;;;;;8.80;6.70;;;;;3.00;96843.00;;;;4898775;29;20040;-64
2023/11/30 08:07:50;;;;;;;12.77;7.13;;;;;2.90;96843.00;;;;4899250;29;20060;-65
2023/11/30 08:10:17;;;;;;;9.40;6.10;;;;;3.00;96844.00;;;;4882615;29;20060;-64
2023/11/30 08:12:45;;;;;;;9.38;7.13;;;;;3.20;96850.00;;;;4897236;29;20135;-63
2023/11/30 08:15:12;;;;;;;8.45;6.53;;;;;3.30;96863.00;;;;4898504;29;20071;-64
2023/11/30 08:17:39;;;;;;;11.05;6.82;;;;;3.40;96854.00;;;;4899450;29;20426;-63
2023/11/30 08:20:13;;;;;;;9.07;6.68;;;;;3.40;96864.00;;;;4898139;29;20056;-64
2023/11/30 08:22:40;;;;;;;9.73;6.68;;;;;3.40;96860.00;;;;4898206;29;20096;-64
2023/11/30 08:25:07;;;;;;;9.98;6.90;;;;;3.60;96864.00;;;;4898745;29;20053;-64
2023/11/30 08:27:35;;;;;;;8.68;6.68;;;;;3.70;96870.00;;;;4899208;29;20055;-64
2023/11/30 08:30:04;;;;;;;10.75;7.03;;;;;3.70;96862.00;;;;4913874;29;20076;-64
2023/11/30 08:32:30;;;;;;;11.65;7.00;;;;;3.90;96857.00;;;;4897769;29;20056;-64
2023/11/30 08:34:57;;;;;;;10.00;6.13;;;;;3.90;96861.00;;;;4898449;29;20099;-64
2023/11/30 08:37:24;;;;;;;8.20;5.50;;;;;3.80;96856.00;;;;4897838;29;20068;-64
2023/11/30 08:39:50;;;;;;;9.13;5.70;;;;;3.70;96854.00;;;;4899015;29;20040;-64
2023/11/30 08:42:17;;;;;;;10.38;5.60;;;;;3.80;96861.00;;;;4897620;29;20052;-64
2023/11/30 08:44:44;;;;;;;12.48;6.13;;;;;3.90;96866.00;;;;4897068;29;20063;-63
2023/11/30 08:47:10;;;;;;;8.50;5.80;;;;;3.90;96875.00;;;;4898906;29;20115;-64
2023/11/30 08:49:37;;;;;;;10.30;8.50;;;;;3.90;96863.00;;;;4897795;29;20064;-64
2023/11/30 08:52:04;;;;;;;7.82;6.53;;;;;3.70;96854.00;;;;4898646;29;20075;-63
2023/11/30 08:54:31;;;;;;;11.65;6.22;;;;;3.70;96858.00;;;;4896907;29;20081;-64
2023/11/30 08:56:58;;;;;;;7.18;5.50;;;;;3.80;96852.00;;;;4897458;29;20048;-64
2023/11/30 08:59:25;;;;;;;6.53;4.80;;;;;3.90;96853.00;;;;4897614;29;20044;-64
2023/11/30 09:01:51;;;;;;;14.23;7.70;;;;;4.00;96856.00;;;;4897339;29;20467;-64
2023/11/30 09:04:18;;;;;;;15.25;6.43;;;;;4.10;96862.00;;;;4897687;29;20559;-64
2023/11/30 09:06:45;;;;;;;5.97;4.38;;;;;4.20;96854.00;;;;4896844;29;20057;-64
2023/11/30 09:09:12;;;;;;;7.30;5.20;;;;;4.50;96846.00;;;;4898390;29;20045;-64
2023/11/30 09:11:39;;;;;;;10.00;4.22;;;;;4.60;96839.00;;;;4898274;29;20562;-64
2023/11/30 09:14:05;;;;;;;5.78;4.72;;;;;4.60;96842.00;;;;4897718;29;20457;-64
2023/11/30 09:16:32;;;;;;;5.18;3.90;;;;;4.50;96838.00;;;;4881859;29;20474;-64
2023/11/30 09:18:59;;;;;;;5.25;4.10;;;;;4.60;96836.00;;;;4898315;29;20059;-64
2023/11/30 09:21:25;;;;;;;6.22;4.55;;;;;4.50;96830.00;;;;4898168;29;20056;-64
2023/11/30 09:23:52;;;;;;;9.35;4.45;;;;;4.50;96827.00;;;;4897298;29;20045;-62
2023/11/30 09:26:20;;;;;;;8.55;4.50;;;;;4.70;96839.00;;;;4896905;29;20104;-63
2023/11/30 09:28:47;;;;;;;6.60;4.70;;;;;4.60;96847.00;;;;4898113;29;20048;-64
2023/11/30 09:31:14;;;;;;;7.35;5.13;;;;;4.50;96853.00;;;;4897970;29;20100;-64
2023/11/30 09:33:41;;;;;;;6.05;5.03;;;;;4.50;96844.00;;;;4897277;29;20044;-64
2023/11/30 09:36:09;;;;;;;7.15;5.03;;;;;4.60;96848.00;;;;4897927;29;20053;-64
2023/11/30 09:38:35;;;;;;;8.75;5.55;;;;;4.60;96853.00;;;;4896395;29;20055;-64
2023/11/30 09:41:08;;;;;;;7.70;5.05;;;;;4.60;96849.00;;;;4881183;29;20056;-64
2023/11/30 09:43:35;;;;;;;8.30;4.93;;;;;4.70;96844.00;;;;4896078;29;20123;-64
2023/11/30 09:46:02;;;;;;;8.32;5.28;;;;;4.70;96841.00;;;;4897657;29;20502;-64
2023/11/30 09:48:29;;;;;;;8.15;5.85;;;;;4.60;96842.00;;;;4899787;29;20501;-64
2023/11/30 09:50:55;;;;;;;8.95;6.47;;;;;4.60;96838.00;;;;4904029;29;20064;-64
2023/11/30 09:53:22;;;;;;;9.20;6.13;;;;;4.80;96846.00;;;;4907567;29;20068;-61
2023/11/30 09:55:49;;;;;;;8.70;6.28;;;;;4.90;96833.00;;;;4916698;29;20051;-62
2023/11/30 09:58:16;;;;;;;12.77;6.70;;;;;5.00;96833.00;;;;4919423;29;20143;-62
2023/11/30 10:00:43;;;;;;;10.73;6.63;;;;;4.80;96834.00;;;;4922720;29;20040;-61
2023/11/30 10:03:09;;;;;;;9.75;6.88;;;;;4.80;96826.00;;;;4922447;29;20045;-62
2023/11/30 10:05:36;;;;;;;6.93;5.82;;;;;4.80;96818.00;;;;4936571;28;20040;-60
2023/11/30 10:08:03;;;;;;;7.13;6.13;;;;;4.90;96815.00;;;;4921828;29;20059;-63
2023/11/30 10:10:30;;;;;;;13.70;9.63;;;;;5.00;96819.00;;;;4922502;29;20016;-60
2023/11/30 10:12:56;;;;;;;14.40;9.00;;;;;5.00;96817.00;;;;4922060;29;20069;-61
2023/11/30 10:15:23;;;;;;;7.72;5.68;;;;;5.10;96819.00;;;;4920942;29;20052;-62
2023/11/30 10:17:50;;;;;;;6.88;5.47;;;;;5.10;96812.00;;;;4920577;29;20048;-62
2023/11/30 10:20:18;;;;;;;15.35;11.90;;;;;5.00;96818.00;;;;4921026;29;20104;-64
2023/11/30 10:22:45;;;;;;;17.17;12.32;;;;;5.00;96813.00;;;;4918612;29;20039;-62
2023/11/30 10:25:12;;;;;;;18.98;13.95;;;;;5.00;96818.00;;;;4918146;29;20060;-63
2023/11/30 10:27:41;;;;;;;25.02;17.58;;;;;5.00;96813.00;;;;4903426;29;20049;-65
2023/11/30 10:30:10;;;;;;;9.63;7.32;;;;;5.10;96810.00;;;;4911821;29;20549;-64
2023/11/30 10:32:39;;;;;;;8.15;6.47;;;;;5.20;96824.00;;;;4918790;29;20096;-64
2023/11/30 10:35:12;;;;;;;10.80;9.07;;;;;5.30;96823.00;;;;4897364;29;20495;-65
2023/11/30 10:37:48;;;;;;;11.43;6.70;;;;;5.40;96826.00;;;;4897598;29;20052;-63
2023/11/30 10:40:18;;;;;;;8.45;6.15;;;;;5.40;96823.00;;;;4897382;29;20068;-64
2023/11/30 10:42:51;;;;;;;6.40;4.55;;;;;5.60;96827.00;;;;4900221;29;20055;-64
2023/11/30 10:45:19;;;;;;;3.60;3.25;;;;;5.80;96825.00;;;;4897646;29;20131;-64
2023/11/30 10:47:47;;;;;;;4.85;4.10;;;;;5.90;96821.00;;;;4898001;29;20075;-64
2023/11/30 10:50:15;;;;;;;4.97;4.30;;;;;6.10;96816.00;;;;4897511;29;20068;-64
2023/11/30 10:52:44;;;;;;;9.70;4.95;;;;;6.20;96823.00;;;;4910930;29;20053;-63
2023/11/30 10:55:19;;;;;;;6.18;4.10;;;;;6.20;96832.00;;;;4915107;29;20065;-64
2023/11/30 10:57:46;;;;;;;5.75;3.97;;;;;6.30;96827.00;;;;4910162;29;20085;-64
2023/11/30 11:00:15;;;;;;;4.93;4.05;;;;;6.30;96820.00;;;;4898504;29;20059;-64
2023/11/30 11:02:47;;;;;;;6.90;4.82;;;;;6.40;96824.00;;;;4912656;29;20064;-64
2023/11/30 11:05:24;;;;;;;8.80;5.55;;;;;6.50;96818.00;;;;4895202;29;20416;-63
2023/11/30 11:07:52;;;;;;;5.75;4.90;;;;;6.30;96812.00;;;;4895499;29;20498;-64
2023/11/30 11:10:27;;;;;;;8.48;5.05;;;;;6.20;96808.00;;;;4895477;29;20061;-64
2023/11/30 11:12:58;;;;;;;5.65;4.70;;;;;6.20;96813.00;;;;4895649;29;20044;-64
2023/11/30 11:15:31;;;;;;;6.00;4.68;;;;;6.20;96818.00;;;;4896466;29;20044;-65
2023/11/30 11:18:07;;;;;;;6.07;5.22;;;;;6.20;96823.00;;;;4895792;29;20064;-63
2023/11/30 11:20:36;;;;;;;7.63;4.97;;;;;6.40;96811.00;;;;4896838;29;20052;-64
2023/11/30 11:23:02;;;;;;;5.75;4.80;;;;;6.40;96813.00;;;;4895438;29;20045;-64
2023/11/30 11:25:34;;;;;;;5.60;4.75;;;;;6.30;96813.00;;;;4895183;29;20060;-65
2023/11/30 11:28:00;;;;;;;7.90;6.65;;;;;6.50;96803.00;;;;4897174;29;20517;-64
2023/11/30 11:30:27;;;;;;;7.78;5.97;;;;;6.70;96795.00;;;;4895554;29;20048;-64
2023/11/30 11:32:57;;;;;;;8.57;5.68;;;;;6.80;96799.00;;;;4896706;29;20069;-64
2023/11/30 11:35:26;;;;;;;8.48;5.75;;;;;6.80;96796.00;;;;4896121;29;20498;-63
2023/11/30 11:37:57;;;;;;;6.38;4.97;;;;;6.80;96793.00;;;;4895496;29;20068;-64
2023/11/30 11:40:26;;;;;;;6.55;4.65;;;;;6.90;96796.00;;;;4880041;29;20100;-63
2023/11/30 11:42:53;;;;;;;7.95;5.05;;;;;7.10;96804.00;;;;4895435;29;20048;-65
2023/11/30 11:45:21;;;;;;;5.65;4.88;;;;;7.30;96791.00;;;;4895855;29;20044;-64
2023/11/30 11:47:47;;;;;;;8.25;5.30;;;;;7.20;96800.00;;;;4912761;29;20112;-65
2023/11/30 11:50:14;;;;;;;5.72;5.10;;;;;7.00;96801.00;;;;4898971;29;20119;-65
2023/11/30 11:52:41;;;;;;;6.95;4.50;;;;;6.80;96791.00;;;;4914553;29;20048;-65
2023/11/30 11:55:10;;;;;;;5.50;4.43;;;;;6.80;96790.00;;;;4900159;29;20075;-65
2023/11/30 11:57:44;;;;;;;6.82;4.40;;;;;7.00;96785.00;;;;4898522;29;20639;-65
2023/11/30 12:00:16;;;;;;;5.60;4.72;;;;;7.10;96779.00;;;;4899707;29;20082;-63
2023/11/30 12:02:44;;;;;;;7.22;4.82;;;;;7.00;96766.00;;;;4899020;29;20049;-64
2023/11/30 12:05:16;;;;;;;8.40;4.93;;;;;6.90;96781.00;;;;4899478;29;20561;-65
2023/11/30 12:07:53;;;;;;;7.57;6.00;;;;;7.00;96774.00;;;;4898468;29;20121;-65
2023/11/30 12:10:27;;;;;;;8.80;6.10;;;;;7.20;96773.00;;;;4899576;29;20113;-64
2023/11/30 12:13:00;;;;;;;;;;;;;7.40;96761.00;;;;4898493;29;20061;-65
2023/11/30 12:15:28;;;;;;;7.70;6.00;;;;;7.40;96758.00;;;;4897814;29;20019;-65
2023/11/30 12:17:55;;;;;;;6.93;5.35;;;;;7.50;96776.00;;;;4899544;29;20152;-64
2023/11/30 12:20:22;;;;;;;9.25;5.28;;;;;7.30;96772.00;;;;4898360;29;20040;-65
2023/11/30 12:22:49;;;;;;;11.15;5.43;;;;;7.20;96770.00;;;;4882609;29;20159;-65
2023/11/30 12:25:16;;;;;;;6.93;5.80;;;;;7.20;96772.00;;;;4898602;29;20048;-64